sensor_id;sensor_type;location;lat;lon;timestamp;pressure;altitude;pressure_sealevel;temperature;humidity
74268;BME280;62638;51.362;12.472;2022-10-16T00:01:18;99905.97;;;13.48;100.00
74268;BME280;62638;51.362;12.472;2022-10-16T00:03:45;99906.13;;;13.47;100.00
74268;BME280;62638;51.362;12.472;2022-10-16T00:06:11;99902.28;;;13.33;100.00
74268;BME280;62638;51.362;12.472;2022-10-16T00:08:38;99895.06;;;13.26;100.00
74268;BME280;62638;51.362;12.472;2022-10-16T00:13:31;99892.34;;;13.50;100.00
74268;BME280;62638;51.362;12.472;2022-10-16T00:15:58;99892.66;;;13.63;100.00
74268;BME280;62638;51.362;12.472;2022-10-16T00:18:25;99888.22;;;13.78;100.00
74268;BME280;62638;51.362;12.472;2022-10-16T00:20:51;99896.59;;;13.91;100.00
74268;BME280;62638;51.362;12.472;2022-10-16T00:23:16;99893.50;;;14.11;100.00
74268;BME280;62638;51.362;12.472;2022-10-16T00:25:41;99893.25;;;14.20;99.05
74268;BME280;62638;51.362;12.472;2022-10-16T00:28:07;99906.97;;;14.41;98.28
74268;BME280;62638;51.362;12.472;2022-10-16T00:30:32;99907.97;;;14.48;97.29
74268;BME280;62638;51.362;12.472;2022-10-16T00:32:57;99901.53;;;14.58;96.96
74268;BME280;62638;51.362;12.472;2022-10-16T00:35:23;99907.03;;;14.64;96.25
74268;BME280;62638;51.362;12.472;2022-10-16T00:37:48;99908.97;;;14.78;95.78
74268;BME280;62638;51.362;12.472;2022-10-16T00:40:13;99911.16;;;14.97;94.74
74268;BME280;62638;51.362;12.472;2022-10-16T00:42:39;99926.41;;;15.13;93.72
74268;BME280;62638;51.362;12.472;2022-10-16T00:45:05;99924.47;;;15.22;93.33
74268;BME280;62638;51.362;12.472;2022-10-16T00:47:53;99928.94;;;15.29;92.73
74268;BME280;62638;51.362;12.472;2022-10-16T00:50:27;99937.72;;;15.46;91.89
74268;BME280;62638;51.362;12.472;2022-10-16T00:52:54;99935.19;;;15.53;91.41
74268;BME280;62638;51.362;12.472;2022-10-16T00:55:21;99941.59;;;15.66;90.68
74268;BME280;62638;51.362;12.472;2022-10-16T00:57:46;99943.84;;;15.63;90.63
74268;BME280;62638;51.362;12.472;2022-10-16T01:00:17;99937.53;;;15.70;90.35
74268;BME280;62638;51.362;12.472;2022-10-16T01:06:21;99937.25;;;15.65;90.80
74268;BME280;62638;51.362;12.472;2022-10-16T01:11:44;99932.19;;;15.62;90.53
74268;BME280;62638;51.362;12.472;2022-10-16T01:14:19;99931.66;;;15.67;90.61
74268;BME280;62638;51.362;12.472;2022-10-16T01:17:02;99932.03;;;15.64;90.46
74268;BME280;62638;51.362;12.472;2022-10-16T01:22:12;99942.91;;;15.56;91.10
74268;BME280;62638;51.362;12.472;2022-10-16T01:24:40;99950.00;;;15.57;91.03
74268;BME280;62638;51.362;12.472;2022-10-16T01:27:23;99942.72;;;15.57;90.84
74268;BME280;62638;51.362;12.472;2022-10-16T01:30:13;99939.78;;;15.44;91.48
74268;BME280;62638;51.362;12.472;2022-10-16T01:32:55;99938.75;;;15.45;91.89
74268;BME280;62638;51.362;12.472;2022-10-16T01:35:26;99936.59;;;15.40;91.80
74268;BME280;62638;51.362;12.472;2022-10-16T01:40:25;99937.13;;;15.36;92.43
74268;BME280;62638;51.362;12.472;2022-10-16T01:42:56;99944.47;;;15.27;92.47
74268;BME280;62638;51.362;12.472;2022-10-16T01:45:23;99941.28;;;15.24;93.16
74268;BME280;62638;51.362;12.472;2022-10-16T01:47:49;99952.00;;;15.17;92.90
74268;BME280;62638;51.362;12.472;2022-10-16T01:50:18;99959.53;;;15.22;93.12
74268;BME280;62638;51.362;12.472;2022-10-16T01:52:47;99960.41;;;15.37;92.28
74268;BME280;62638;51.362;12.472;2022-10-16T01:55:16;99963.09;;;15.37;92.80
74268;BME280;62638;51.362;12.472;2022-10-16T01:57:46;99962.94;;;15.38;92.29
74268;BME280;62638;51.362;12.472;2022-10-16T02:00:13;99969.06;;;15.32;92.54
74268;BME280;62638;51.362;12.472;2022-10-16T02:02:45;99967.44;;;15.23;93.05
74268;BME280;62638;51.362;12.472;2022-10-16T02:05:34;99963.41;;;15.19;93.40
74268;BME280;62638;51.362;12.472;2022-10-16T02:08:03;99958.09;;;15.11;93.89
74268;BME280;62638;51.362;12.472;2022-10-16T02:10:29;99956.78;;;15.07;93.93
74268;BME280;62638;51.362;12.472;2022-10-16T02:13:09;99952.13;;;15.01;93.99
74268;BME280;62638;51.362;12.472;2022-10-16T02:15:35;99944.56;;;14.96;94.70
74268;BME280;62638;51.362;12.472;2022-10-16T02:18:02;99951.56;;;14.83;94.99
74268;BME280;62638;51.362;12.472;2022-10-16T02:20:33;99945.81;;;14.86;95.30
74268;BME280;62638;51.362;12.472;2022-10-16T02:23:02;99944.31;;;14.83;95.68
74268;BME280;62638;51.362;12.472;2022-10-16T02:25:32;99944.66;;;14.80;95.33
74268;BME280;62638;51.362;12.472;2022-10-16T02:28:04;99958.03;;;14.74;96.20
74268;BME280;62638;51.362;12.472;2022-10-16T02:30:42;99966.84;;;14.90;95.14
74268;BME280;62638;51.362;12.472;2022-10-16T02:33:11;99959.53;;;14.99;94.71
74268;BME280;62638;51.362;12.472;2022-10-16T02:35:40;99963.19;;;15.06;94.73
74268;BME280;62638;51.362;12.472;2022-10-16T02:38:07;99978.19;;;15.09;94.17
74268;BME280;62638;51.362;12.472;2022-10-16T02:40:33;99982.75;;;15.08;94.27
74268;BME280;62638;51.362;12.472;2022-10-16T02:42:59;99978.66;;;15.12;94.31
74268;BME280;62638;51.362;12.472;2022-10-16T02:45:25;99972.59;;;15.10;94.20
74268;BME280;62638;51.362;12.472;2022-10-16T02:47:50;99974.22;;;14.96;94.82
74268;BME280;62638;51.362;12.472;2022-10-16T02:50:16;99968.06;;;14.88;95.23
74268;BME280;62638;51.362;12.472;2022-10-16T02:52:41;99971.38;;;14.90;95.35
74268;BME280;62638;51.362;12.472;2022-10-16T02:55:07;99966.72;;;14.84;95.46
74268;BME280;62638;51.362;12.472;2022-10-16T02:57:32;99963.34;;;14.82;96.01
74268;BME280;62638;51.362;12.472;2022-10-16T02:59:58;99959.66;;;14.83;96.01
74268;BME280;62638;51.362;12.472;2022-10-16T03:02:23;99964.06;;;14.76;96.38
74268;BME280;62638;51.362;12.472;2022-10-16T03:04:49;99962.41;;;14.75;96.62
74268;BME280;62638;51.362;12.472;2022-10-16T03:07:14;99973.72;;;14.70;96.74
74268;BME280;62638;51.362;12.472;2022-10-16T03:09:40;99973.88;;;14.69;96.84
74268;BME280;62638;51.362;12.472;2022-10-16T03:12:05;99980.66;;;14.65;96.74
74268;BME280;62638;51.362;12.472;2022-10-16T03:14:30;99976.25;;;14.64;96.91
74268;BME280;62638;51.362;12.472;2022-10-16T03:16:56;99983.56;;;14.55;97.22
74268;BME280;62638;51.362;12.472;2022-10-16T03:19:21;99986.56;;;14.60;97.64
74268;BME280;62638;51.362;12.472;2022-10-16T03:21:47;99988.41;;;14.60;97.62
74268;BME280;62638;51.362;12.472;2022-10-16T03:24:12;99979.69;;;14.58;97.85
74268;BME280;62638;51.362;12.472;2022-10-16T03:26:37;99976.84;;;14.51;97.63
74268;BME280;62638;51.362;12.472;2022-10-16T03:29:03;99978.69;;;14.50;97.71
74268;BME280;62638;51.362;12.472;2022-10-16T03:31:29;99984.75;;;14.52;97.97
74268;BME280;62638;51.362;12.472;2022-10-16T03:33:54;99990.84;;;14.46;97.98
74268;BME280;62638;51.362;12.472;2022-10-16T03:36:20;99999.13;;;14.45;98.23
74268;BME280;62638;51.362;12.472;2022-10-16T03:38:45;100005.31;;;14.53;98.24
74268;BME280;62638;51.362;12.472;2022-10-16T03:41:10;100007.75;;;14.63;98.21
74268;BME280;62638;51.362;12.472;2022-10-16T03:43:35;100006.63;;;14.58;97.76
74268;BME280;62638;51.362;12.472;2022-10-16T03:46:01;100000.22;;;14.59;97.76
74268;BME280;62638;51.362;12.472;2022-10-16T03:48:26;99994.16;;;14.57;98.01
74268;BME280;62638;51.362;12.472;2022-10-16T03:50:52;99992.66;;;14.54;98.36
74268;BME280;62638;51.362;12.472;2022-10-16T03:53:17;99996.69;;;14.58;98.24
74268;BME280;62638;51.362;12.472;2022-10-16T03:55:43;99978.34;;;14.53;98.36
74268;BME280;62638;51.362;12.472;2022-10-16T03:58:09;99982.75;;;14.46;98.52
74268;BME280;62638;51.362;12.472;2022-10-16T04:00:35;99980.06;;;14.46;98.90
74268;BME280;62638;51.362;12.472;2022-10-16T04:03:00;99972.47;;;14.50;99.01
74268;BME280;62638;51.362;12.472;2022-10-16T04:05:26;99968.38;;;14.54;98.93
74268;BME280;62638;51.362;12.472;2022-10-16T04:07:52;99982.06;;;14.52;98.91
74268;BME280;62638;51.362;12.472;2022-10-16T04:10:17;99985.13;;;14.49;98.90
74268;BME280;62638;51.362;12.472;2022-10-16T04:12:44;99986.28;;;14.47;98.62
74268;BME280;62638;51.362;12.472;2022-10-16T04:15:09;99974.56;;;14.63;98.60
74268;BME280;62638;51.362;12.472;2022-10-16T04:17:35;99978.97;;;14.64;98.19
74268;BME280;62638;51.362;12.472;2022-10-16T04:20:00;99986.19;;;14.63;98.38
74268;BME280;62638;51.362;12.472;2022-10-16T04:22:25;99976.59;;;14.69;97.55
74268;BME280;62638;51.362;12.472;2022-10-16T04:24:50;99977.84;;;14.58;98.00
74268;BME280;62638;51.362;12.472;2022-10-16T04:27:16;99980.53;;;14.50;99.06
74268;BME280;62638;51.362;12.472;2022-10-16T04:29:41;100003.78;;;14.51;98.62
74268;BME280;62638;51.362;12.472;2022-10-16T04:32:08;100002.91;;;14.59;98.32
74268;BME280;62638;51.362;12.472;2022-10-16T04:34:34;100004.59;;;14.60;97.81
74268;BME280;62638;51.362;12.472;2022-10-16T04:36:59;100014.38;;;14.61;97.67
74268;BME280;62638;51.362;12.472;2022-10-16T04:39:25;100024.13;;;14.62;97.92
74268;BME280;62638;51.362;12.472;2022-10-16T04:41:50;100021.78;;;14.59;97.63
74268;BME280;62638;51.362;12.472;2022-10-16T04:44:15;100007.00;;;14.46;98.38
74268;BME280;62638;51.362;12.472;2022-10-16T04:46:40;100016.31;;;14.36;98.74
74268;BME280;62638;51.362;12.472;2022-10-16T04:49:06;100028.75;;;14.37;98.54
74268;BME280;62638;51.362;12.472;2022-10-16T04:51:31;100035.19;;;14.36;98.55
74268;BME280;62638;51.362;12.472;2022-10-16T04:53:56;100036.16;;;14.43;98.72
74268;BME280;62638;51.362;12.472;2022-10-16T04:56:22;100034.66;;;14.40;98.32
74268;BME280;62638;51.362;12.472;2022-10-16T04:58:48;100023.88;;;14.32;98.65
74268;BME280;62638;51.362;12.472;2022-10-16T05:01:13;100034.34;;;14.27;98.94
74268;BME280;62638;51.362;12.472;2022-10-16T05:03:38;100039.72;;;14.27;99.46
74268;BME280;62638;51.362;12.472;2022-10-16T05:06:07;100044.25;;;14.43;98.70
74268;BME280;62638;51.362;12.472;2022-10-16T05:08:33;100055.88;;;14.43;98.11
74268;BME280;62638;51.362;12.472;2022-10-16T05:10:58;100058.53;;;14.51;97.59
74268;BME280;62638;51.362;12.472;2022-10-16T05:13:23;100066.78;;;14.50;97.54
74268;BME280;62638;51.362;12.472;2022-10-16T05:15:49;100070.63;;;14.56;97.22
74268;BME280;62638;51.362;12.472;2022-10-16T05:18:15;100064.09;;;14.50;97.46
74268;BME280;62638;51.362;12.472;2022-10-16T05:20:41;100060.38;;;14.51;97.29
74268;BME280;62638;51.362;12.472;2022-10-16T05:23:07;100061.06;;;14.53;97.12
74268;BME280;62638;51.362;12.472;2022-10-16T05:25:32;100067.78;;;14.57;96.90
74268;BME280;62638;51.362;12.472;2022-10-16T05:27:57;100065.97;;;14.49;96.54
74268;BME280;62638;51.362;12.472;2022-10-16T05:30:23;100059.72;;;14.49;97.07
74268;BME280;62638;51.362;12.472;2022-10-16T05:32:49;100058.72;;;14.42;97.02
74268;BME280;62638;51.362;12.472;2022-10-16T05:35:16;100077.94;;;14.39;97.13
74268;BME280;62638;51.362;12.472;2022-10-16T05:37:41;100079.13;;;14.44;97.35
74268;BME280;62638;51.362;12.472;2022-10-16T05:40:08;100080.25;;;14.50;96.95
74268;BME280;62638;51.362;12.472;2022-10-16T05:42:33;100080.78;;;14.45;97.17
74268;BME280;62638;51.362;12.472;2022-10-16T05:44:58;100068.97;;;14.46;96.73
74268;BME280;62638;51.362;12.472;2022-10-16T05:47:23;100075.91;;;14.49;96.79
74268;BME280;62638;51.362;12.472;2022-10-16T05:49:49;100084.13;;;14.56;96.35
74268;BME280;62638;51.362;12.472;2022-10-16T05:52:14;100091.03;;;14.58;96.36
74268;BME280;62638;51.362;12.472;2022-10-16T05:54:40;100088.59;;;14.71;95.67
74268;BME280;62638;51.362;12.472;2022-10-16T05:57:05;100089.13;;;14.75;95.00
74268;BME280;62638;51.362;12.472;2022-10-16T05:59:31;100097.50;;;14.80;94.81
74268;BME280;62638;51.362;12.472;2022-10-16T06:01:57;100100.66;;;14.91;94.41
74268;BME280;62638;51.362;12.472;2022-10-16T06:04:22;100095.75;;;14.95;94.02
74268;BME280;62638;51.362;12.472;2022-10-16T06:06:47;100104.00;;;14.93;93.91
74268;BME280;62638;51.362;12.472;2022-10-16T06:09:13;100100.31;;;14.94;94.01
74268;BME280;62638;51.362;12.472;2022-10-16T06:11:38;100110.56;;;14.99;94.19
74268;BME280;62638;51.362;12.472;2022-10-16T06:14:03;100114.44;;;15.05;93.71
74268;BME280;62638;51.362;12.472;2022-10-16T06:16:33;100119.63;;;15.14;93.09
74268;BME280;62638;51.362;12.472;2022-10-16T06:18:59;100118.56;;;15.15;92.94
74268;BME280;62638;51.362;12.472;2022-10-16T06:21:26;100118.03;;;15.20;92.52
74268;BME280;62638;51.362;12.472;2022-10-16T06:23:52;100119.03;;;15.27;92.91
74268;BME280;62638;51.362;12.472;2022-10-16T06:26:20;100124.78;;;15.24;92.63
74268;BME280;62638;51.362;12.472;2022-10-16T06:28:45;100131.00;;;15.24;92.67
74268;BME280;62638;51.362;12.472;2022-10-16T06:31:12;100126.28;;;15.26;92.52
74268;BME280;62638;51.362;12.472;2022-10-16T06:33:39;100121.91;;;15.25;92.51
74268;BME280;62638;51.362;12.472;2022-10-16T06:36:15;100129.84;;;15.27;92.58
74268;BME280;62638;51.362;12.472;2022-10-16T06:38:41;100134.34;;;15.34;92.70
74268;BME280;62638;51.362;12.472;2022-10-16T06:41:07;100140.50;;;15.51;92.14
74268;BME280;62638;51.362;12.472;2022-10-16T06:43:33;100151.72;;;15.63;91.12
74268;BME280;62638;51.362;12.472;2022-10-16T06:46:01;100155.09;;;15.65;91.06
74268;BME280;62638;51.362;12.472;2022-10-16T06:48:27;100150.59;;;15.57;91.13
74268;BME280;62638;51.362;12.472;2022-10-16T06:51:03;100152.09;;;15.60;91.38
74268;BME280;62638;51.362;12.472;2022-10-16T06:53:31;100159.34;;;15.59;91.35
74268;BME280;62638;51.362;12.472;2022-10-16T06:55:58;100165.44;;;15.61;91.16
74268;BME280;62638;51.362;12.472;2022-10-16T06:58:31;100164.91;;;15.66;90.68
74268;BME280;62638;51.362;12.472;2022-10-16T07:00:56;100172.72;;;15.75;90.98
74268;BME280;62638;51.362;12.472;2022-10-16T07:03:22;100164.09;;;15.80;90.47
74268;BME280;62638;51.362;12.472;2022-10-16T07:05:47;100176.97;;;15.78;90.46
74268;BME280;62638;51.362;12.472;2022-10-16T07:08:12;100171.03;;;15.82;90.39
74268;BME280;62638;51.362;12.472;2022-10-16T07:10:38;100176.97;;;15.78;90.77
74268;BME280;62638;51.362;12.472;2022-10-16T07:13:03;100162.91;;;15.82;90.84
74268;BME280;62638;51.362;12.472;2022-10-16T07:15:28;100161.94;;;15.75;91.75
74268;BME280;62638;51.362;12.472;2022-10-16T07:17:54;100153.66;;;15.77;91.59
74268;BME280;62638;51.362;12.472;2022-10-16T07:20:19;100141.16;;;15.76;92.19
74268;BME280;62638;51.362;12.472;2022-10-16T07:22:45;100121.44;;;15.75;92.09
74268;BME280;62638;51.362;12.472;2022-10-16T07:25:11;100114.84;;;15.78;92.06
74268;BME280;62638;51.362;12.472;2022-10-16T07:27:37;100119.16;;;15.87;91.52
74268;BME280;62638;51.362;12.472;2022-10-16T07:30:02;100140.16;;;16.00;91.18
74268;BME280;62638;51.362;12.472;2022-10-16T07:32:28;100160.63;;;16.17;90.58
74268;BME280;62638;51.362;12.472;2022-10-16T07:34:53;100173.69;;;16.28;89.61
74268;BME280;62638;51.362;12.472;2022-10-16T07:37:19;100188.34;;;16.33;89.11
74268;BME280;62638;51.362;12.472;2022-10-16T07:39:44;100184.31;;;16.29;90.55
74268;BME280;62638;51.362;12.472;2022-10-16T07:42:10;100193.06;;;16.31;89.73
74268;BME280;62638;51.362;12.472;2022-10-16T07:44:35;100195.97;;;16.30;89.68
74268;BME280;62638;51.362;12.472;2022-10-16T07:47:03;100191.13;;;16.40;89.54
74268;BME280;62638;51.362;12.472;2022-10-16T07:49:28;100192.88;;;16.56;88.61
74268;BME280;62638;51.362;12.472;2022-10-16T07:51:53;100196.91;;;16.74;87.40
74268;BME280;62638;51.362;12.472;2022-10-16T07:54:19;100200.31;;;16.91;87.00
74268;BME280;62638;51.362;12.472;2022-10-16T07:56:44;100209.25;;;17.06;85.85
74268;BME280;62638;51.362;12.472;2022-10-16T07:59:10;100225.75;;;17.26;84.83
74268;BME280;62638;51.362;12.472;2022-10-16T08:01:35;100232.09;;;17.48;83.84
74268;BME280;62638;51.362;12.472;2022-10-16T08:04:01;100236.09;;;17.52;83.40
74268;BME280;62638;51.362;12.472;2022-10-16T08:06:26;100240.06;;;17.64;82.57
74268;BME280;62638;51.362;12.472;2022-10-16T08:08:51;100241.63;;;17.73;82.45
74268;BME280;62638;51.362;12.472;2022-10-16T08:11:17;100251.81;;;18.07;80.25
74268;BME280;62638;51.362;12.472;2022-10-16T08:13:42;100243.66;;;18.49;78.67
74268;BME280;62638;51.362;12.472;2022-10-16T08:16:08;100249.56;;;19.09;77.21
74268;BME280;62638;51.362;12.472;2022-10-16T08:18:38;100263.91;;;19.30;75.59
74268;BME280;62638;51.362;12.472;2022-10-16T08:21:05;100260.44;;;19.09;75.42
74268;BME280;62638;51.362;12.472;2022-10-16T08:23:32;100268.13;;;19.39;75.24
74268;BME280;62638;51.362;12.472;2022-10-16T08:26:05;100277.69;;;19.29;74.57
74268;BME280;62638;51.362;12.472;2022-10-16T08:28:31;100279.28;;;19.17;75.00
74268;BME280;62638;51.362;12.472;2022-10-16T08:31:04;100283.84;;;19.10;76.64
74268;BME280;62638;51.362;12.472;2022-10-16T08:33:30;100284.41;;;18.77;75.63
74268;BME280;62638;51.362;12.472;2022-10-16T08:35:55;100288.91;;;18.64;76.28
74268;BME280;62638;51.362;12.472;2022-10-16T08:38:20;100270.34;;;18.67;76.67
74268;BME280;62638;51.362;12.472;2022-10-16T08:40:46;100267.69;;;18.74;75.77
74268;BME280;62638;51.362;12.472;2022-10-16T08:43:19;100278.34;;;19.03;75.43
74268;BME280;62638;51.362;12.472;2022-10-16T08:48:51;100293.09;;;19.22;74.88
74268;BME280;62638;51.362;12.472;2022-10-16T08:51:23;100289.78;;;19.26;74.46
74268;BME280;62638;51.362;12.472;2022-10-16T08:53:51;100309.16;;;19.17;74.58
74268;BME280;62638;51.362;12.472;2022-10-16T08:56:17;100302.19;;;19.08;74.38
74268;BME280;62638;51.362;12.472;2022-10-16T08:58:45;100313.19;;;18.99;75.29
74268;BME280;62638;51.362;12.472;2022-10-16T09:01:12;100314.53;;;19.10;74.30
74268;BME280;62638;51.362;12.472;2022-10-16T09:13:55;100334.88;;;19.83;71.66
74268;BME280;62638;51.362;12.472;2022-10-16T09:16:41;100337.84;;;19.88;71.42
74268;BME280;62638;51.362;12.472;2022-10-16T09:21:42;100335.16;;;20.01;70.76
74268;BME280;62638;51.362;12.472;2022-10-16T09:24:25;100327.38;;;20.46;69.16
74268;BME280;62638;51.362;12.472;2022-10-16T09:26:51;100331.59;;;20.68;68.74
74268;BME280;62638;51.362;12.472;2022-10-16T09:29:19;100333.47;;;20.54;68.33
74268;BME280;62638;51.362;12.472;2022-10-16T09:31:45;100326.53;;;20.32;69.62
74268;BME280;62638;51.362;12.472;2022-10-16T09:34:29;100339.47;;;19.89;70.84
74268;BME280;62638;51.362;12.472;2022-10-16T09:36:57;100342.22;;;20.36;70.01
74268;BME280;62638;51.362;12.472;2022-10-16T09:39:23;100342.94;;;20.78;68.78
74268;BME280;62638;51.362;12.472;2022-10-16T09:41:49;100341.44;;;20.75;68.37
74268;BME280;62638;51.362;12.472;2022-10-16T09:44:19;100345.66;;;21.11;67.47
74268;BME280;62638;51.362;12.472;2022-10-16T09:46:46;100353.22;;;21.09;67.73
74268;BME280;62638;51.362;12.472;2022-10-16T09:49:19;100360.03;;;21.90;65.43
74268;BME280;62638;51.362;12.472;2022-10-16T09:51:45;100351.69;;;20.67;67.91
74268;BME280;62638;51.362;12.472;2022-10-16T09:54:17;100355.25;;;20.67;69.06
74268;BME280;62638;51.362;12.472;2022-10-16T09:56:43;100345.22;;;20.61;69.29
74268;BME280;62638;51.362;12.472;2022-10-16T09:59:31;100344.31;;;20.34;71.22
74268;BME280;62638;51.362;12.472;2022-10-16T10:02:00;100358.03;;;20.20;71.13
74268;BME280;62638;51.362;12.472;2022-10-16T10:04:38;100363.88;;;20.17;71.27
74268;BME280;62638;51.362;12.472;2022-10-16T10:07:04;100368.84;;;20.00;71.77
74268;BME280;62638;51.362;12.472;2022-10-16T10:09:37;100367.56;;;20.03;71.90
74268;BME280;62638;51.362;12.472;2022-10-16T10:12:05;100361.69;;;19.92;71.85
74268;BME280;62638;51.362;12.472;2022-10-16T10:14:34;100356.84;;;19.88;72.00
74268;BME280;62638;51.362;12.472;2022-10-16T10:19:43;100384.53;;;20.05;71.40
74268;BME280;62638;51.362;12.472;2022-10-16T10:22:17;100384.09;;;20.42;70.40
74268;BME280;62638;51.362;12.472;2022-10-16T10:24:54;100377.19;;;20.40;69.97
74268;BME280;62638;51.362;12.472;2022-10-16T10:27:21;100386.94;;;20.27;71.03
74268;BME280;62638;51.362;12.472;2022-10-16T10:32:50;100392.78;;;20.24;70.40
74268;BME280;62638;51.362;12.472;2022-10-16T10:38:28;100385.13;;;20.34;70.69
74268;BME280;62638;51.362;12.472;2022-10-16T10:44:01;100386.56;;;20.30;70.66
74268;BME280;62638;51.362;12.472;2022-10-16T10:46:35;100380.38;;;20.15;71.28
74268;BME280;62638;51.362;12.472;2022-10-16T10:49:19;100384.59;;;20.18;71.12
74268;BME280;62638;51.362;12.472;2022-10-16T11:00:27;100396.38;;;19.90;72.86
74268;BME280;62638;51.362;12.472;2022-10-16T11:05:52;100396.03;;;20.07;72.13
74268;BME280;62638;51.362;12.472;2022-10-16T11:08:35;100389.78;;;20.06;72.33
74268;BME280;62638;51.362;12.472;2022-10-16T11:11:32;100387.50;;;20.10;71.71
74268;BME280;62638;51.362;12.472;2022-10-16T11:30:20;100396.94;;;20.20;70.65
74268;BME280;62638;51.362;12.472;2022-10-16T11:38:02;100403.34;;;20.41;70.02
74268;BME280;62638;51.362;12.472;2022-10-16T11:40:38;100406.97;;;20.61;69.80
74268;BME280;62638;51.362;12.472;2022-10-16T11:43:37;100402.50;;;20.40;70.07
74268;BME280;62638;51.362;12.472;2022-10-16T11:46:16;100410.25;;;20.43;69.88
74268;BME280;62638;51.362;12.472;2022-10-16T11:48:54;100412.97;;;20.43;70.14
74268;BME280;62638;51.362;12.472;2022-10-16T11:56:46;100405.41;;;20.32;70.39
74268;BME280;62638;51.362;12.472;2022-10-16T11:59:28;100410.38;;;20.28;70.83
74268;BME280;62638;51.362;12.472;2022-10-16T12:05:25;100406.69;;;20.36;71.90
74268;BME280;62638;51.362;12.472;2022-10-16T12:08:04;100408.38;;;20.50;70.55
74268;BME280;62638;51.362;12.472;2022-10-16T12:10:31;100418.00;;;20.46;71.01
74268;BME280;62638;51.362;12.472;2022-10-16T12:13:02;100413.59;;;20.32;70.56
74268;BME280;62638;51.362;12.472;2022-10-16T12:15:30;100413.34;;;20.33;70.67
74268;BME280;62638;51.362;12.472;2022-10-16T12:17:56;100413.94;;;20.29;70.64
74268;BME280;62638;51.362;12.472;2022-10-16T12:20:30;100418.75;;;20.27;70.65
74268;BME280;62638;51.362;12.472;2022-10-16T12:23:05;100420.28;;;20.36;70.50
74268;BME280;62638;51.362;12.472;2022-10-16T12:28:00;100422.59;;;20.46;70.96
74268;BME280;62638;51.362;12.472;2022-10-16T12:30:28;100427.69;;;20.55;71.26
74268;BME280;62638;51.362;12.472;2022-10-16T12:32:56;100425.63;;;20.77;71.17
74268;BME280;62638;51.362;12.472;2022-10-16T12:35:25;100423.91;;;20.63;70.14
74268;BME280;62638;51.362;12.472;2022-10-16T12:37:52;100432.78;;;20.84;70.37
74268;BME280;62638;51.362;12.472;2022-10-16T12:40:27;100429.41;;;20.76;69.77
74268;BME280;62638;51.362;12.472;2022-10-16T12:42:54;100437.38;;;20.71;70.46
74268;BME280;62638;51.362;12.472;2022-10-16T12:45:24;100434.22;;;20.80;70.61
74268;BME280;62638;51.362;12.472;2022-10-16T12:47:52;100444.75;;;20.97;69.32
74268;BME280;62638;51.362;12.472;2022-10-16T12:50:25;100433.66;;;20.92;69.73
74268;BME280;62638;51.362;12.472;2022-10-16T12:52:51;100432.81;;;20.98;68.91
74268;BME280;62638;51.362;12.472;2022-10-16T12:55:19;100436.94;;;20.80;69.19
74268;BME280;62638;51.362;12.472;2022-10-16T12:58:00;100444.03;;;20.62;70.52
74268;BME280;62638;51.362;12.472;2022-10-16T13:11:48;100445.25;;;20.53;71.96
74268;BME280;62638;51.362;12.472;2022-10-16T13:20:17;100440.81;;;20.45;71.13
74268;BME280;62638;51.362;12.472;2022-10-16T13:25:39;100441.06;;;20.16;71.80
74268;BME280;62638;51.362;12.472;2022-10-16T13:28:09;100441.47;;;20.47;71.46
74268;BME280;62638;51.362;12.472;2022-10-16T13:30:39;100448.75;;;21.07;68.78
74268;BME280;62638;51.362;12.472;2022-10-16T13:33:15;100451.09;;;21.37;67.85
74268;BME280;62638;51.362;12.472;2022-10-16T13:35:53;100449.63;;;21.27;67.44
74268;BME280;62638;51.362;12.472;2022-10-16T13:38:21;100457.59;;;21.29;68.81
74268;BME280;62638;51.362;12.472;2022-10-16T13:40:58;100457.28;;;20.84;68.61
74268;BME280;62638;51.362;12.472;2022-10-16T13:43:39;100449.84;;;20.52;70.25
74268;BME280;62638;51.362;12.472;2022-10-16T13:48:40;100451.78;;;20.71;69.16
74268;BME280;62638;51.362;12.472;2022-10-16T13:51:12;100460.13;;;21.24;68.10
74268;BME280;62638;51.362;12.472;2022-10-16T13:53:38;100460.31;;;21.62;67.86
74268;BME280;62638;51.362;12.472;2022-10-16T13:56:07;100459.06;;;21.58;65.92
74268;BME280;62638;51.362;12.472;2022-10-16T13:58:34;100463.88;;;21.36;66.57
74268;BME280;62638;51.362;12.472;2022-10-16T14:01:02;100474.59;;;21.57;66.38
74268;BME280;62638;51.362;12.472;2022-10-16T14:03:30;100473.97;;;21.55;66.91
74268;BME280;62638;51.362;12.472;2022-10-16T14:05:58;100478.59;;;21.48;65.59
74268;BME280;62638;51.362;12.472;2022-10-16T14:08:26;100478.13;;;21.32;66.13
74268;BME280;62638;51.362;12.472;2022-10-16T14:10:57;100484.41;;;21.12;66.44
74268;BME280;62638;51.362;12.472;2022-10-16T14:13:44;100484.78;;;21.03;66.81
74268;BME280;62638;51.362;12.472;2022-10-16T14:16:16;100494.50;;;20.64;68.34
74268;BME280;62638;51.362;12.472;2022-10-16T14:18:46;100489.25;;;20.22;69.80
74268;BME280;62638;51.362;12.472;2022-10-16T14:21:15;100485.09;;;19.98;71.18
74268;BME280;62638;51.362;12.472;2022-10-16T14:23:41;100491.25;;;19.79;71.71
74268;BME280;62638;51.362;12.472;2022-10-16T14:28:38;100485.06;;;19.64;72.57
74268;BME280;62638;51.362;12.472;2022-10-16T14:33:51;100485.41;;;19.54;72.94
74268;BME280;62638;51.362;12.472;2022-10-16T14:36:17;100481.31;;;19.65;72.86
74268;BME280;62638;51.362;12.472;2022-10-16T14:39:00;100485.97;;;19.71;72.56
74268;BME280;62638;51.362;12.472;2022-10-16T14:41:27;100487.41;;;19.67;73.12
74268;BME280;62638;51.362;12.472;2022-10-16T14:43:56;100487.34;;;19.60;73.18